This is the latest recevied weather packets stored in our database for station/object W5HKR. If no packets are shown the sender has not sent any weather packets the latest 10 day(s).
| Time | Temp. | Humidity | Pressure | Rain* | Wind** | Luminosity | Snow |
|---|---|---|---|---|---|---|---|
| 1777216112 | 24.44° C | 88% | 981.2 hPa | 0 mm | - | - | - |
| 1777215811 | 18.33° C | 91% | 990.6 hPa | 0 mm | - | - | - |
| 1777215510 | 18.33° C | 91% | 990.6 hPa | 0 mm | - | - | - |
| 1777214911 | 23.89° C | 90% | 981 hPa | 0 mm | - | - | - |
| 1777214610 | 23.89° C | 91% | 981.4 hPa | 0 mm | - | - | - |
| 1777214442 | 23.89° C | 91% | 980.8 hPa | 0 mm | - | - | - |
| 1777214311 | 23.89° C | 91% | 980.6 hPa | 0 mm | - | - | - |
| 1777214012 | 18.33° C | 91% | 990.6 hPa | 0 mm | - | - | - |
| 1777213411 | 18.33° C | 91% | 990.6 hPa | 0 mm | - | - | - |
| 1777213362 | 23.33° C | 93% | 980.7 hPa | 0 mm | - | - | - |
| 1777212811 | 18.33° C | 91% | 990.6 hPa | 0 mm | - | - | - |
| 1777212511 | 22.78° C | 95% | 981 hPa | 0 mm | - | - | - |
| 1777212282 | 22.78° C | 96% | 981.2 hPa | 0 mm | - | - | - |
| 1777212212 | 18.33° C | 91% | 990.6 hPa | 0 mm | - | - | - |
| 1777211610 | 18.33° C | 91% | 990.6 hPa | 0 mm | - | - | - |
| 1777211311 | 22.22° C | 97% | 980.5 hPa | 0 mm | - | - | - |
| 1777211202 | 18.33° C | 91% | 990.6 hPa | 0 mm | - | - | - |
| 1777211010 | 18.33° C | 91% | 990.6 hPa | 0 mm | - | - | - |
| 1777210712 | 22.22° C | 97% | 980.8 hPa | 0 mm | - | - | - |
| 1777210411 | 18.33° C | 91% | 990.6 hPa | 0 mm | - | - | - |
| 1777210110 | 18.33° C | 91% | 990.6 hPa | 0 mm | - | - | - |
| 1777209812 | 18.33° C | 91% | 990.6 hPa | 0 mm | - | - | - |
| 1777209511 | 22.22° C | 97% | 980.6 hPa | 0 mm | - | - | - |
| 1777209211 | 22.22° C | 97% | 980.1 hPa | 0 mm | - | - | - |
| 1777209042 | 22.22° C | 97% | 980.4 hPa | 0 mm | - | - | - |
* Rain latest hour (hover to see other rain measurements)
** Current wind speed in m/s (hover to see current wind gust speed)